Kezdőlap
METAR-TAF:

METAR-TAF

Repülőterek :

Ferrara, Olaszország

földrajzi szélesség: 44-50N, földrajzi hosszúság: 011-37E, magasság: 10 m

Jelenlegi meteorológiai megfigyelések

A jelentés 8 órával és 14 perccel ezelõtt készült, 17:55 UTC
Nyugat-északnyugati szél 7 kt
Hőmérséklet 8°C
Páratartalom 93%
Légköri nyomás 1005 hPa
Látótávolság: 2500 m
Párásság

METAR: LIPF 281755Z 29007KT 2500 BR NSC 08/07 Q1005 RMK FEW FEW200 VIS MIN 2500

Idő: 03:09 (02:09 UTC)


TAF: hiányzik

Meteorológiai megfigyelések és előrejelzések több, mint 4000 repülőtéren (METAR és TAF jelentéseket).

A térképen piros és sárga pontok jelzik az elérhető meteorológiai állomásokat.

Mozgassa az egeret a pont fölött, hogy megjelenjen az állomás neve.

Azután kattintson az időjárási megfigyelések és előrejelzések megtekintéséhez.

A térkép megváltoztatása: kattintson a fekete keresztel jelölt zöld gombra ráközelítéshez, a vonallal jelölt zöld gombra távolításhoz, vagy a zöld nyilakra a szomszédos térképek eléréséhez.


METAR-TAF: